Time;durP1;ratioP1;P1;durP2;ratioP2;P2;SDS_P1;SDS_P2;PMS_P1;PMS_P2;Temp;Humidity;BMP_temperature;BMP_pressure;BME280_temperature;BME280_humidity;BME280_pressure;Samples;Min_cycle;Max_cycle;Signal;HPM_P1;HPM_P2
2024/01/03 00:01:53;;;;;;;;;;;;;;;10.59;100.00;98602.28;4985831;28;20184;-81
2024/01/03 00:04:19;;;;;;;;;;;;;;;10.61;100.00;98609.13;4995540;28;19943;-78
2024/01/03 00:06:45;;;;;;;;;;;;;;;10.49;100.00;98621.28;4990953;28;19921;-75
2024/01/03 00:09:10;;;;;;;;;;;;;;;10.59;100.00;98613.00;4991863;28;19921;-75
2024/01/03 00:11:36;;;;;;;;;;;;;;;10.58;100.00;98609.50;5010122;28;20347;-76
2024/01/03 00:14:15;;;;;;;;;;;;;;;10.64;100.00;98618.69;5009747;28;19947;-76
2024/01/03 00:16:40;;;;;;;;;;;;;;;10.58;100.00;98630.97;5011071;28;20449;-76
2024/01/03 00:19:07;;;;;;;;;;;;;;;10.53;100.00;98627.13;5009556;28;19925;-75
2024/01/03 00:21:33;;;;;;;;;;;;;;;10.54;100.00;98610.00;5022896;28;20403;-74
2024/01/03 00:23:58;;;;;;;;;;;;;;;10.59;100.00;98611.19;5005528;28;20667;-75
2024/01/03 00:26:24;;;;;;;;;;;;;;;10.70;100.00;98630.56;5009422;28;20386;-77
2024/01/03 00:28:49;;;;;;;;;;;;;;;10.70;100.00;98630.56;5010720;28;19921;-76
2024/01/03 00:31:26;;;;;;;;;;;;;;;10.61;100.00;98635.13;5010349;28;20347;-78
2024/01/03 00:33:51;;;;;;;;;;;;;;;10.62;100.00;98632.28;5013572;28;20110;-75
2024/01/03 00:36:16;;;;;;;;;;;;;;;10.49;100.00;98635.50;5007838;28;19937;-75
2024/01/03 00:38:42;;;;;;;;;;;;;;;10.56;100.00;98645.56;5013307;28;19960;-75
2024/01/03 00:41:12;;;;;;;;;;;;;;;10.57;100.00;98623.94;5013083;28;20004;-77
2024/01/03 00:43:37;;;;;;;;;;;;;;;10.58;100.00;98663.16;5013348;28;19952;-77
2024/01/03 00:46:02;;;;;;;;;;;;;;;10.55;100.00;98649.25;4993296;28;20327;-76
2024/01/03 00:48:28;;;;;;;;;;;;;;;10.50;100.00;98653.28;5011896;28;20397;-76
2024/01/03 00:50:53;;;;;;;;;;;;;;;10.50;100.00;98693.53;5023182;28;19963;-76
2024/01/03 00:53:18;;;;;;;;;;;;;;;10.60;100.00;98660.31;5010469;28;19934;-79
2024/01/03 00:55:43;;;;;;;;;;;;;;;10.48;100.00;98657.97;5030244;28;19928;-77
2024/01/03 00:58:09;;;;;;;;;;;;;;;10.60;100.00;98666.50;5011729;28;19957;-76
2024/01/03 01:00:34;;;;;;;;;;;;;;;10.49;100.00;98665.00;5026738;28;20359;-80
2024/01/03 01:03:00;;;;;;;;;;;;;;;10.50;100.00;98671.25;4994785;28;20160;-76
2024/01/03 01:05:25;;;;;;;;;;;;;;;10.47;100.00;98679.63;5028917;28;19921;-77
2024/01/03 01:07:50;;;;;;;;;;;;;;;10.54;100.00;98685.13;5012556;28;21669;-75
2024/01/03 01:10:15;;;;;;;;;;;;;;;10.42;100.00;98684.66;5013216;28;20415;-77
2024/01/03 01:12:40;;;;;;;;;;;;;;;10.44;100.00;98688.88;5010219;28;20421;-78
2024/01/03 01:15:06;;;;;;;;;;;;;;;10.38;100.00;98702.94;5012960;28;19928;-77
2024/01/03 01:17:31;;;;;;;;;;;;;;;10.37;100.00;98698.56;5012189;28;20424;-76
2024/01/03 01:19:56;;;;;;;;;;;;;;;10.36;100.00;98707.63;5011533;28;20279;-76
2024/01/03 01:22:23;;;;;;;;;;;;;;;10.42;100.00;98711.50;5013188;28;20634;-79
2024/01/03 01:24:48;;;;;;;;;;;;;;;10.40;100.00;98700.94;5008398;28;20282;-79
2024/01/03 01:27:14;;;;;;;;;;;;;;;10.36;100.00;98732.59;5012875;28;19920;-77
2024/01/03 01:29:39;;;;;;;;;;;;;;;10.40;100.00;98724.22;5013530;28;19928;-78
2024/01/03 01:32:04;;;;;;;;;;;;;;;10.45;100.00;98703.97;5029743;28;19927;-75
2024/01/03 01:34:29;;;;;;;;;;;;;;;10.48;100.00;98732.28;5010989;28;19925;-75
2024/01/03 01:36:55;;;;;;;;;;;;;;;10.40;100.00;98716.19;5012651;28;20692;-74
2024/01/03 01:39:20;;;;;;;;;;;;;;;10.27;100.00;98741.66;5011569;28;20042;-76
2024/01/03 01:41:45;;;;;;;;;;;;;;;10.35;100.00;98708.63;5011149;28;20672;-76
2024/01/03 01:44:10;;;;;;;;;;;;;;;10.45;100.00;98728.09;5023283;28;19921;-76
2024/01/03 01:46:36;;;;;;;;;;;;;;;10.48;100.00;98734.97;5009280;28;20111;-77
2024/01/03 01:49:03;;;;;;;;;;;;;;;10.45;100.00;98736.16;5012726;28;19925;-75
2024/01/03 01:51:28;;;;;;;;;;;;;;;10.37;100.00;98752.22;5028906;28;19970;-78
2024/01/03 01:53:53;;;;;;;;;;;;;;;10.44;100.00;98744.34;5011976;28;19925;-74
2024/01/03 01:56:19;;;;;;;;;;;;;;;10.46;100.00;98750.38;5007252;28;19929;-77
2024/01/03 01:58:44;;;;;;;;;;;;;;;10.43;100.00;98758.78;5006909;28;20422;-77
2024/01/03 02:01:09;;;;;;;;;;;;;;;10.34;100.00;98764.09;5011607;28;20593;-77
2024/01/03 02:03:35;;;;;;;;;;;;;;;10.33;100.00;98772.34;5014912;28;19921;-78
2024/01/03 02:06:00;;;;;;;;;;;;;;;10.47;100.00;98738.66;5011004;28;19924;-81
2024/01/03 02:08:25;;;;;;;;;;;;;;;10.47;100.00;98765.47;4994117;28;20324;-77
2024/01/03 02:10:51;;;;;;;;;;;;;;;10.39;100.00;98771.69;5004659;28;19943;-77
2024/01/03 02:13:16;;;;;;;;;;;;;;;10.44;100.00;98777.41;5011704;28;20002;-77
2024/01/03 02:15:41;;;;;;;;;;;;;;;10.37;100.00;98776.34;5024123;28;19948;-79
2024/01/03 02:18:07;;;;;;;;;;;;;;;10.25;100.00;98791.97;4990126;28;20353;-79
2024/01/03 02:20:35;;;;;;;;;;;;;;;10.30;100.00;98778.03;5010860;28;19925;-78
2024/01/03 02:23:00;;;;;;;;;;;;;;;10.25;100.00;98791.97;4991267;28;20303;-80
2024/01/03 02:25:26;;;;;;;;;;;;;;;10.32;100.00;98781.38;5008110;28;19925;-77
2024/01/03 02:27:51;;;;;;;;;;;;;;;10.29;100.00;98781.72;5010900;28;19964;-76
2024/01/03 02:30:16;;;;;;;;;;;;;;;10.19;100.00;98774.69;5008379;28;19921;-79
2024/01/03 02:32:41;;;;;;;;;;;;;;;10.26;100.00;98790.94;5007414;28;20634;-76
2024/01/03 02:35:07;;;;;;;;;;;;;;;10.30;100.00;98783.41;5027478;28;19921;-78
2024/01/03 02:37:32;;;;;;;;;;;;;;;10.28;100.00;98797.00;4990897;28;19964;-77
2024/01/03 02:39:57;;;;;;;;;;;;;;;10.26;100.00;98790.09;5009985;28;19920;-78
2024/01/03 02:42:22;;;;;;;;;;;;;;;10.21;100.00;98796.78;5007630;28;20272;-75
2024/01/03 02:44:47;;;;;;;;;;;;;;;10.29;100.00;98792.44;5009411;28;20338;-79
2024/01/03 02:47:13;;;;;;;;;;;;;;;10.28;100.00;98805.03;5010122;28;20471;-76
2024/01/03 02:49:38;;;;;;;;;;;;;;;10.28;100.00;98791.63;5011451;28;20435;-77
2024/01/03 02:52:03;;;;;;;;;;;;;;;10.28;100.00;98793.44;5011494;28;20437;-77
2024/01/03 02:54:28;;;;;;;;;;;;;;;10.31;100.00;98801.16;5013419;28;19940;-77
2024/01/03 02:56:54;;;;;;;;;;;;;;;10.30;100.00;98792.28;5009069;28;19936;-77
2024/01/03 02:59:19;;;;;;;;;;;;;;;10.24;100.00;98814.41;5009924;28;19917;-78
2024/01/03 03:01:44;;;;;;;;;;;;;;;10.26;100.00;98804.38;5010675;28;19961;-78
2024/01/03 03:04:09;;;;;;;;;;;;;;;10.33;100.00;98804.53;5012759;28;20014;-78
2024/01/03 03:06:35;;;;;;;;;;;;;;;10.31;100.00;98803.84;4995167;28;19932;-76
2024/01/03 03:09:00;;;;;;;;;;;;;;;10.36;100.00;98807.69;5009689;28;19925;-77
2024/01/03 03:11:25;;;;;;;;;;;;;;;10.33;100.00;98817.94;5026009;28;20585;-78
2024/01/03 03:13:50;;;;;;;;;;;;;;;10.27;100.00;98814.09;5008529;28;20015;-77
2024/01/03 03:16:15;;;;;;;;;;;;;;;10.23;100.00;98812.75;5027027;28;19925;-76
2024/01/03 03:18:41;;;;;;;;;;;;;;;10.33;100.00;98813.38;5012670;28;19921;-76
2024/01/03 03:21:07;;;;;;;;;;;;;;;10.36;100.00;98809.56;5010252;28;19925;-77
2024/01/03 03:23:32;;;;;;;;;;;;;;;10.18;100.00;98823.13;5026758;28;19932;-79
2024/01/03 03:25:59;;;;;;;;;;;;;;;10.18;100.00;98832.03;5009541;28;20437;-77
2024/01/03 03:28:25;;;;;;;;;;;;;;;10.16;100.00;98817.94;5008117;28;20458;-77
2024/01/03 03:30:50;;;;;;;;;;;;;;;10.16;100.00;98815.25;5023909;28;20288;-76
2024/01/03 03:33:15;;;;;;;;;;;;;;;10.15;100.00;98816.25;5008229;28;20217;-78
2024/01/03 03:35:41;;;;;;;;;;;;;;;10.12;100.00;98821.09;5027337;28;20007;-77
2024/01/03 03:38:06;;;;;;;;;;;;;;;10.11;100.00;98832.81;5009376;28;19964;-78
2024/01/03 03:40:31;;;;;;;;;;;;;;;10.01;100.00;98831.16;5025825;28;19979;-78
2024/01/03 03:42:56;;;;;;;;;;;;;;;10.02;100.00;98837.34;5010555;28;20402;-77
2024/01/03 03:45:22;;;;;;;;;;;;;;;9.98;100.00;98833.31;5005390;28;19929;-77
2024/01/03 03:47:47;;;;;;;;;;;;;;;10.05;100.00;98837.03;5025944;28;20024;-77
2024/01/03 03:50:12;;;;;;;;;;;;;;;10.05;100.00;98848.59;4993486;28;19921;-77
2024/01/03 03:52:40;;;;;;;;;;;;;;;10.03;100.00;98839.03;5009468;28;19932;-78
2024/01/03 03:55:06;;;;;;;;;;;;;;;10.07;100.00;98829.66;5010691;28;19928;-77
2024/01/03 03:57:31;;;;;;;;;;;;;;;10.04;100.00;98852.28;5011165;28;19921;-79
2024/01/03 03:59:56;;;;;;;;;;;;;;;10.00;100.00;98842.88;4993961;28;19957;-77
2024/01/03 04:02:23;;;;;;;;;;;;;;;10.04;100.00;98841.56;5008907;28;20016;-76
2024/01/03 04:04:48;;;;;;;;;;;;;;;10.09;100.00;98862.50;4993056;28;20318;-78
2024/01/03 04:07:13;;;;;;;;;;;;;;;10.01;100.00;98849.06;5012124;28;19925;-76
2024/01/03 04:09:38;;;;;;;;;;;;;;;10.06;100.00;98854.78;4994235;28;20423;-77
2024/01/03 04:12:04;;;;;;;;;;;;;;;10.13;100.00;98852.28;5013359;28;19929;-77
2024/01/03 04:14:29;;;;;;;;;;;;;;;9.96;100.00;98854.09;5008520;28;19917;-77
2024/01/03 04:16:54;;;;;;;;;;;;;;;9.97;100.00;98863.81;5008971;28;19932;-76
2024/01/03 04:19:19;;;;;;;;;;;;;;;9.79;100.00;98862.09;5011820;28;19983;-76
2024/01/03 04:21:45;;;;;;;;;;;;;;;9.66;100.00;98869.78;4997785;28;20332;-77
2024/01/03 04:24:10;;;;;;;;;;;;;;;9.55;100.00;98866.38;5011150;28;20401;-77
2024/01/03 04:26:35;;;;;;;;;;;;;;;9.44;100.00;98875.53;5030132;28;19921;-80
2024/01/03 04:29:00;;;;;;;;;;;;;;;9.36;100.00;98870.13;5012109;28;20234;-79
2024/01/03 04:31:26;;;;;;;;;;;;;;;9.20;100.00;98870.06;5013606;28;19932;-78
2024/01/03 04:33:51;;;;;;;;;;;;;;;9.14;100.00;98867.00;4995110;28;20012;-78
2024/01/03 04:36:16;;;;;;;;;;;;;;;9.10;100.00;98868.31;5027554;28;19928;-77
2024/01/03 04:38:41;;;;;;;;;;;;;;;9.09;100.00;98876.53;5013840;28;19928;-79
2024/01/03 04:41:06;;;;;;;;;;;;;;;9.13;100.00;98878.72;5029387;28;20020;-79
2024/01/03 04:43:32;;;;;;;;;;;;;;;9.05;100.00;98884.00;4994304;28;19925;-78
2024/01/03 04:45:57;;;;;;;;;;;;;;;9.08;100.00;98888.22;5013470;28;19924;-79
2024/01/03 04:48:22;;;;;;;;;;;;;;;8.97;100.00;98855.38;4992293;28;19932;-78
2024/01/03 04:50:47;;;;;;;;;;;;;;;9.00;100.00;98881.81;5011809;28;19918;-78
2024/01/03 04:53:12;;;;;;;;;;;;;;;8.92;100.00;98880.94;5012811;28;19929;-75
2024/01/03 04:55:38;;;;;;;;;;;;;;;8.94;100.00;98884.28;5019311;28;19925;-78
2024/01/03 04:58:03;;;;;;;;;;;;;;;8.88;100.00;98884.91;5021030;28;19921;-79
2024/01/03 05:00:29;;;;;;;;;;;;;;;8.96;100.00;98884.97;5000811;28;19929;-78
2024/01/03 05:02:55;;;;;;;;;;;;;;;9.07;100.00;98875.84;5015351;28;19928;-78
2024/01/03 05:05:21;;;;;;;;;;;;;;;9.10;100.00;98875.53;5032060;28;20380;-77
2024/01/03 05:07:46;;;;;;;;;;;;;;;9.09;100.00;98880.03;5030989;28;20012;-78
2024/01/03 05:10:11;;;;;;;;;;;;;;;9.14;100.00;98866.16;5020352;28;20001;-78
2024/01/03 05:12:37;;;;;;;;;;;;;;;9.22;100.00;98874.25;5020809;28;19967;-79
2024/01/03 05:15:05;;;;;;;;;;;;;;;9.20;100.00;98873.56;5030757;28;19932;-77
2024/01/03 05:17:31;;;;;;;;;;;;;;;9.21;100.00;98874.41;5017998;28;19965;-76
2024/01/03 05:19:56;;;;;;;;;;;;;;;9.20;100.00;98884.28;5034287;28;19996;-76
2024/01/03 05:22:21;;;;;;;;;;;;;;;9.25;100.00;98865.91;5015610;28;19928;-77
2024/01/03 05:24:46;;;;;;;;;;;;;;;9.25;100.00;98890.00;5022719;28;20718;-76
2024/01/03 05:27:12;;;;;;;;;;;;;;;9.28;100.00;98873.63;5013559;28;19925;-78
2024/01/03 05:29:37;;;;;;;;;;;;;;;9.26;100.00;98880.97;5022713;28;19972;-76
2024/01/03 05:32:02;;;;;;;;;;;;;;;9.07;100.00;98886.56;5016097;28;20020;-77
2024/01/03 05:34:27;;;;;;;;;;;;;;;9.04;100.00;98905.59;5018621;28;19972;-76
2024/01/03 05:36:53;;;;;;;;;;;;;;;8.95;100.00;98899.34;4998023;28;20019;-77
2024/01/03 05:39:18;;;;;;;;;;;;;;;8.86;100.00;98903.81;5003245;28;19928;-77
2024/01/03 05:41:43;;;;;;;;;;;;;;;8.74;100.00;98911.22;5016462;28;19921;-76
2024/01/03 05:44:08;;;;;;;;;;;;;;;8.68;100.00;98907.34;5021200;28;19920;-75
2024/01/03 05:46:33;;;;;;;;;;;;;;;8.61;100.00;98916.97;5017593;28;19924;-76
2024/01/03 05:48:59;;;;;;;;;;;;;;;8.52;100.00;98909.91;5018193;28;19974;-75
2024/01/03 05:51:24;;;;;;;;;;;;;;;8.57;100.00;98912.94;5016941;28;19921;-75
2024/01/03 05:53:49;;;;;;;;;;;;;;;8.61;100.00;98902.78;5018129;28;19972;-75
2024/01/03 05:56:15;;;;;;;;;;;;;;;8.51;100.00;98901.00;5017075;28;19921;-77
2024/01/03 05:58:40;;;;;;;;;;;;;;;8.49;100.00;98908.34;4996413;28;19968;-76
2024/01/03 06:01:06;;;;;;;;;;;;;;;8.58;100.00;98917.31;5033949;28;19940;-75
2024/01/03 06:03:32;;;;;;;;;;;;;;;8.64;100.00;98922.03;5019717;28;19925;-74
2024/01/03 06:05:57;;;;;;;;;;;;;;;8.63;100.00;98916.84;5032238;28;19921;-75
2024/01/03 06:08:22;;;;;;;;;;;;;;;8.63;100.00;98912.31;5018504;28;19933;-76
2024/01/03 06:10:47;;;;;;;;;;;;;;;8.74;100.00;98915.75;5018760;28;19921;-77
2024/01/03 06:13:15;;;;;;;;;;;;;;;8.76;100.00;98903.06;5024951;28;19957;-75
2024/01/03 06:15:40;;;;;;;;;;;;;;;8.74;100.00;98910.41;4997522;28;19921;-75
2024/01/03 06:18:05;;;;;;;;;;;;;;;8.76;100.00;98906.56;5010493;28;19940;-77
2024/01/03 06:20:30;;;;;;;;;;;;;;;8.79;100.00;98897.41;5023205;28;19987;-77
2024/01/03 06:22:56;;;;;;;;;;;;;;;8.79;100.00;98913.47;5013628;28;20003;-75
2024/01/03 06:25:21;;;;;;;;;;;;;;;8.76;100.00;98906.56;5008731;28;20085;-75
2024/01/03 06:27:46;;;;;;;;;;;;;;;8.78;100.00;98909.94;5011656;28;19920;-75
2024/01/03 06:30:11;;;;;;;;;;;;;;;8.73;100.00;98912.25;5031073;28;19925;-76
2024/01/03 06:32:37;;;;;;;;;;;;;;;8.65;100.00;98914.84;5012703;28;20226;-75
2024/01/03 06:35:02;;;;;;;;;;;;;;;8.67;100.00;98919.03;5022233;28;19931;-76
2024/01/03 06:37:27;;;;;;;;;;;;;;;8.54;100.00;98929.31;5005896;28;19940;-77
2024/01/03 06:39:52;;;;;;;;;;;;;;;8.35;100.00;98931.09;5022483;28;20020;-77
2024/01/03 06:42:17;;;;;;;;;;;;;;;8.18;100.00;98923.91;5009715;28;19921;-76
2024/01/03 06:44:43;;;;;;;;;;;;;;;8.04;100.00;98927.94;5007018;28;20814;-77
2024/01/03 06:47:08;;;;;;;;;;;;;;;7.95;100.00;98913.63;5000210;28;19936;-78
2024/01/03 06:49:34;;;;;;;;;;;;;;;7.86;100.00;98928.75;5021973;28;19925;-75
2024/01/03 06:51:59;;;;;;;;;;;;;;;7.78;100.00;98939.31;5011115;28;19925;-74
2024/01/03 06:54:24;;;;;;;;;;;;;;;7.78;100.00;98928.63;5005361;28;19925;-76
2024/01/03 06:56:49;;;;;;;;;;;;;;;7.68;100.00;98923.34;5010780;28;20450;-75
2024/01/03 06:59:15;;;;;;;;;;;;;;;7.65;100.00;98924.50;5004696;28;19932;-75
2024/01/03 07:01:40;;;;;;;;;;;;;;;7.63;100.00;98910.44;5009965;28;20007;-77
2024/01/03 07:04:05;;;;;;;;;;;;;;;7.61;100.00;98923.09;5003623;28;20016;-75
2024/01/03 07:06:30;;;;;;;;;;;;;;;7.64;100.00;98920.16;5008174;28;19921;-76
2024/01/03 07:08:55;;;;;;;;;;;;;;;7.57;100.00;98924.38;5011358;28;19920;-77
2024/01/03 07:11:21;;;;;;;;;;;;;;;7.51;100.00;98922.28;5000320;28;19921;-75
2024/01/03 07:13:46;;;;;;;;;;;;;;;7.45;100.00;98930.88;5020889;28;19921;-75
2024/01/03 07:16:11;;;;;;;;;;;;;;;7.31;100.00;98927.72;5004418;28;19917;-77
2024/01/03 07:18:36;;;;;;;;;;;;;;;7.24;100.00;98929.28;5023570;28;19921;-76
2024/01/03 07:21:02;;;;;;;;;;;;;;;7.18;100.00;98935.19;5008675;28;20311;-74
2024/01/03 07:23:27;;;;;;;;;;;;;;;7.13;100.00;98940.13;5001306;28;20360;-76
2024/01/03 07:25:52;;;;;;;;;;;;;;;7.05;100.00;98940.84;4996464;28;19921;-75
2024/01/03 07:28:18;;;;;;;;;;;;;;;7.18;100.00;98951.19;5020957;28;20673;-75
2024/01/03 07:30:44;;;;;;;;;;;;;;;7.09;100.00;98952.91;4985743;28;20379;-75
2024/01/03 07:33:09;;;;;;;;;;;;;;;7.06;100.00;98955.84;5029285;28;20391;-75
2024/01/03 07:35:34;;;;;;;;;;;;;;;7.02;100.00;98957.97;5007434;28;20277;-75
2024/01/03 07:37:59;;;;;;;;;;;;;;;6.98;100.00;98953.09;5019763;28;19913;-75
2024/01/03 07:40:24;;;;;;;;;;;;;;;6.95;100.00;98956.88;5005502;28;19921;-75
2024/01/03 07:42:50;;;;;;;;;;;;;;;6.74;100.00;98931.19;5005153;28;19963;-75
2024/01/03 07:45:15;;;;;;;;;;;;;;;6.96;100.00;98955.88;5015929;28;19928;-75
2024/01/03 07:47:40;;;;;;;;;;;;;;;6.97;100.00;98959.41;5007190;28;19967;-74
2024/01/03 07:50:06;;;;;;;;;;;;;;;6.92;100.00;98959.81;5024525;28;20014;-74
2024/01/03 07:52:31;;;;;;;;;;;;;;;7.00;100.00;98970.63;5023535;28;20024;-75
2024/01/03 07:54:56;;;;;;;;;;;;;;;6.94;100.00;98983.69;5010567;28;19924;-74
2024/01/03 07:57:21;;;;;;;;;;;;;;;6.95;100.00;98980.03;5002793;28;20307;-76
2024/01/03 07:59:47;;;;;;;;;;;;;;;7.03;100.00;98972.16;5020293;28;20307;-75
2024/01/03 08:02:12;;;;;;;;;;;;;;;7.05;100.00;98980.84;5007958;28;19932;-75
2024/01/03 08:04:38;;;;;;;;;;;;;;;7.09;100.00;98984.09;4989641;28;19920;-75
2024/01/03 08:07:03;;;;;;;;;;;;;;;7.09;100.00;98982.25;5005510;28;19967;-75
2024/01/03 08:09:29;;;;;;;;;;;;;;;7.11;100.00;98982.97;5008332;28;19920;-76
2024/01/03 08:11:54;;;;;;;;;;;;;;;7.17;100.00;98978.88;5010807;28;19997;-75
2024/01/03 08:14:19;;;;;;;;;;;;;;;7.18;100.00;98981.41;5006480;28;20333;-77
2024/01/03 08:16:44;;;;;;;;;;;;;;;7.17;100.00;98987.75;4987110;28;20390;-75
2024/01/03 08:19:09;;;;;;;;;;;;;;;7.20;100.00;98986.59;5006676;28;19921;-75
2024/01/03 08:21:35;;;;;;;;;;;;;;;7.18;100.00;98988.56;5008435;28;19976;-75
2024/01/03 08:24:00;;;;;;;;;;;;;;;7.23;100.00;98990.81;5018557;28;19921;-75
2024/01/03 08:26:25;;;;;;;;;;;;;;;7.26;100.00;98985.19;5015508;28;19980;-72
2024/01/03 08:28:50;;;;;;;;;;;;;;;7.25;100.00;98988.84;5024416;28;19979;-75
2024/01/03 08:31:16;;;;;;;;;;;;;;;7.25;100.00;98994.19;5003194;28;19925;-77
2024/01/03 08:33:42;;;;;;;;;;;;;;;7.27;100.00;98997.56;5022890;28;19933;-74
2024/01/03 08:36:09;;;;;;;;;;;;;;;7.28;100.00;98985.91;5017861;28;19928;-75
2024/01/03 08:38:35;;;;;;;;;;;;;;;7.30;100.00;98982.09;5009416;28;19921;-76
2024/01/03 08:41:00;;;;;;;;;;;;;;;7.28;100.00;98984.06;4993677;28;19921;-78
2024/01/03 08:43:25;;;;;;;;;;;;;;;7.37;100.00;98989.53;5014229;28;20405;-75
2024/01/03 08:45:50;;;;;;;;;;;;;;;7.38;100.00;98992.03;5004909;28;20216;-74
2024/01/03 08:48:16;;;;;;;;;;;;;;;7.38;100.00;98992.03;5005982;28;20355;-76
2024/01/03 08:50:43;;;;;;;;;;;;;;;7.44;100.00;98999.47;4988145;28;19928;-76
2024/01/03 08:53:08;;;;;;;;;;;;;;;7.47;100.00;99006.34;5008673;28;20517;-76
2024/01/03 08:55:33;;;;;;;;;;;;;;;7.52;100.00;99013.94;5027143;28;19929;-76
2024/01/03 08:57:58;;;;;;;;;;;;;;;7.62;100.00;99009.41;4997127;28;19921;-75
2024/01/03 09:00:24;;;;;;;;;;;;;;;7.59;100.00;99023.03;5014508;28;20415;-76
2024/01/03 09:02:49;;;;;;;;;;;;;;;7.53;100.00;99012.97;5011843;28;20316;-76
2024/01/03 09:05:14;;;;;;;;;;;;;;;7.58;100.00;99006.19;5008771;28;19917;-74
2024/01/03 09:07:42;;;;;;;;;;;;;;;7.58;100.00;99003.53;5013285;28;19921;-76
2024/01/03 09:10:07;;;;;;;;;;;;;;;7.63;100.00;99009.28;5028786;28;19921;-76
2024/01/03 09:12:32;;;;;;;;;;;;;;;7.65;100.00;99011.78;5012392;28;19975;-75
2024/01/03 09:14:58;;;;;;;;;;;;;;;7.72;100.00;99006.69;5008558;28;20293;-74
2024/01/03 09:17:23;;;;;;;;;;;;;;;7.71;100.00;99016.56;5014974;28;20415;-77
2024/01/03 09:19:48;;;;;;;;;;;;;;;7.80;100.00;99007.66;5007407;28;19953;-75
2024/01/03 09:22:15;;;;;;;;;;;;;;;7.80;100.00;99029.03;5013823;28;20008;-76
2024/01/03 09:24:40;;;;;;;;;;;;;;;7.84;100.00;99020.72;5015657;28;19968;-76
2024/01/03 09:27:06;;;;;;;;;;;;;;;7.87;100.00;99029.28;5013342;28;20720;-75
2024/01/03 09:29:31;;;;;;;;;;;;;;;7.99;100.00;99026.41;5025295;28;19921;-75
2024/01/03 09:31:58;;;;;;;;;;;;;;;8.01;100.00;99029.78;5024300;28;19925;-75
2024/01/03 09:34:23;;;;;;;;;;;;;;;8.01;100.00;99030.63;5007893;28;20035;-77
2024/01/03 09:36:49;;;;;;;;;;;;;;;8.03;100.00;99038.50;5028092;28;19967;-73
2024/01/03 09:39:16;;;;;;;;;;;;;;;8.08;100.00;99036.22;5005321;28;19967;-75
2024/01/03 09:41:41;;;;;;;;;;;;;;;8.10;100.00;99047.63;5030682;28;19927;-74
2024/01/03 09:44:06;;;;;;;;;;;;;;;8.16;100.00;99057.72;5008539;28;19925;-75
2024/01/03 09:46:31;;;;;;;;;;;;;;;8.26;100.00;99039.78;4997062;28;19921;-75
2024/01/03 09:48:57;;;;;;;;;;;;;;;8.30;100.00;99043.03;5025135;28;19971;-76
2024/01/03 09:51:22;;;;;;;;;;;;;;;8.35;100.00;99046.06;5008296;28;19921;-75
2024/01/03 09:53:51;;;;;;;;;;;;;;;8.38;100.00;99050.28;5008209;28;19983;-76
2024/01/03 09:56:16;;;;;;;;;;;;;;;8.39;100.00;99050.13;5006923;28;19925;-75
2024/01/03 09:58:41;;;;;;;;;;;;;;;8.41;100.00;99056.19;5005214;28;19921;-76
2024/01/03 10:01:07;;;;;;;;;;;;;;;8.51;100.00;99061.50;5006658;28;19975;-74
2024/01/03 10:03:32;;;;;;;;;;;;;;;8.57;100.00;99053.88;5015553;28;19963;-74
2024/01/03 10:06:11;;;;;;;;;;;;;;;8.54;100.00;99058.53;5010768;28;20364;-76
2024/01/03 10:08:36;;;;;;;;;;;;;;;8.57;100.00;99061.91;5007884;28;20065;-75
2024/01/03 10:11:02;;;;;;;;;;;;;;;8.60;100.00;99058.91;5031009;28;20682;-75
2024/01/03 10:13:30;;;;;;;;;;;;;;;8.57;100.00;99060.06;5022633;28;20326;-75
2024/01/03 10:15:55;;;;;;;;;;;;;;;8.57;100.00;99059.22;5010741;28;19967;-75
2024/01/03 10:18:21;;;;;;;;;;;;;;;8.53;100.00;99058.69;5012524;28;19917;-75
2024/01/03 10:20:46;;;;;;;;;;;;;;;8.63;100.00;99066.66;4996174;28;19971;-74
2024/01/03 10:23:15;;;;;;;;;;;;;;;8.65;100.00;99059.31;5024918;28;19921;-76
2024/01/03 10:25:41;;;;;;;;;;;;;;;8.61;100.00;99071.31;5024270;28;19929;-76
2024/01/03 10:28:08;;;;;;;;;;;;;;;8.70;100.00;99084.63;5006063;28;20355;-77
2024/01/03 10:30:33;;;;;;;;;;;;;;;8.74;100.00;99069.09;4992514;28;20367;-75
2024/01/03 10:33:02;;;;;;;;;;;;;;;8.64;100.00;99054.97;5024509;28;19921;-79
2024/01/03 10:35:28;;;;;;;;;;;;;;;8.72;100.00;99073.78;5011750;28;20443;-76
2024/01/03 10:37:54;;;;;;;;;;;;;;;8.74;100.00;99078.97;5014289;28;19925;-77
2024/01/03 10:40:19;;;;;;;;;;;;;;;8.72;100.00;99071.09;5023593;28;19921;-77
2024/01/03 10:42:45;;;;;;;;;;;;;;;8.82;100.00;99079.06;5027196;28;19928;-77
2024/01/03 10:45:10;;;;;;;;;;;;;;;8.82;100.00;99069.19;4992723;28;19967;-77
2024/01/03 10:47:35;;;;;;;;;;;;;;;8.82;100.00;99077.22;5004899;28;19999;-75
2024/01/03 10:50:01;;;;;;;;;;;;;;;8.87;100.00;99079.47;5024304;28;19917;-78
2024/01/03 10:52:26;;;;;;;;;;;;;;;8.91;100.00;99079.97;4990619;28;20291;-75
2024/01/03 10:54:52;;;;;;;;;;;;;;;8.95;100.00;99087.53;4991049;28;20048;-76
2024/01/03 10:57:18;;;;;;;;;;;;;;;8.99;100.00;99090.78;4994913;28;20334;-75
2024/01/03 10:59:52;;;;;;;;;;;;;;;9.04;100.00;99082.28;5021477;28;20397;-75
2024/01/03 11:02:24;;;;;;;;;;;;;;;9.13;100.00;99090.22;4991951;28;20330;-76
2024/01/03 11:04:58;;;;;;;;;;;;;;;9.60;100.00;99074.88;5008208;28;19922;-77
2024/01/03 11:07:28;;;;;;;;;;;;;;;9.62;100.00;99086.28;4992920;28;19917;-78
2024/01/03 11:09:53;;;;;;;;;;;;;;;9.79;100.00;99081.03;4990939;28;19921;-76
2024/01/03 11:12:18;;;;;;;;;;;;;;;9.74;100.00;99063.59;5007400;28;19960;-77
2024/01/03 11:14:45;;;;;;;;;;;;;;;9.98;100.00;99085.31;5004413;28;19921;-77
2024/01/03 11:17:10;;;;;;;;;;;;;;;10.23;100.00;99082.75;4991735;28;20023;-76
2024/01/03 11:19:37;;;;;;;;;;;;;;;9.99;100.00;99068.22;5023453;28;20301;-77
2024/01/03 11:22:03;;;;;;;;;;;;;;;9.70;100.00;99066.72;5021151;28;20129;-78
2024/01/03 11:24:28;;;;;;;;;;;;;;;9.58;100.00;99077.72;5007404;28;19928;-78
2024/01/03 11:26:53;;;;;;;;;;;;;;;9.55;100.00;99082.53;5007156;28;19925;-78
2024/01/03 11:29:50;;;;;;;;;;;;;;;9.29;100.00;99069.94;5013955;28;19952;-76
2024/01/03 11:32:25;;;;;;;;;;;;;;;9.14;100.00;99086.56;5005394;28;20016;-76
2024/01/03 11:34:50;;;;;;;;;;;;;;;9.08;100.00;99084.50;4992612;28;20372;-78
2024/01/03 11:37:16;;;;;;;;;;;;;;;9.13;100.00;99070.66;5007892;28;19921;-78
2024/01/03 11:39:47;;;;;;;;;;;;;;;9.13;100.00;99079.53;5001394;28;19944;-78
2024/01/03 11:42:18;;;;;;;;;;;;;;;9.10;100.00;99065.63;5021505;28;20314;-77
2024/01/03 11:44:44;;;;;;;;;;;;;;;9.14;100.00;99066.97;5013185;28;19917;-78
2024/01/03 11:47:09;;;;;;;;;;;;;;;9.12;100.00;99069.81;5003831;28;19921;-77
2024/01/03 11:49:35;;;;;;;;;;;;;;;9.11;100.00;99067.31;4996809;28;19917;-79
2024/01/03 11:52:01;;;;;;;;;;;;;;;8.79;100.00;99079.38;5011764;28;19931;-75
2024/01/03 11:54:32;;;;;;;;;;;;;;;8.63;100.00;99072.00;5008642;28;19931;-78
2024/01/03 11:56:58;;;;;;;;;;;;;;;8.53;100.00;99059.50;5001193;28;19921;-76
2024/01/03 11:59:23;;;;;;;;;;;;;;;8.49;100.00;99071.50;5005205;28;19967;-75
2024/01/03 12:01:56;;;;;;;;;;;;;;;8.54;100.00;99081.78;5004176;28;20003;-76
2024/01/03 12:04:21;;;;;;;;;;;;;;;8.50;100.00;99075.03;5009709;28;19952;-76
2024/01/03 12:06:46;;;;;;;;;;;;;;;8.49;100.00;99081.38;5008335;28;19956;-74
2024/01/03 12:09:11;;;;;;;;;;;;;;;8.45;100.00;99070.13;5009532;28;20019;-74
2024/01/03 12:11:37;;;;;;;;;;;;;;;8.49;100.00;99068.00;5007873;28;19918;-75
2024/01/03 12:14:02;;;;;;;;;;;;;;;8.74;100.00;99066.41;5016281;28;19926;-76
2024/01/03 12:16:27;;;;;;;;;;;;;;;8.93;100.00;99061.94;4993903;28;19924;-76
2024/01/03 12:18:53;;;;;;;;;;;;;;;8.84;100.00;99050.31;5024251;28;19921;-76
2024/01/03 12:21:18;;;;;;;;;;;;;;;8.70;100.00;99060.53;5007296;28;19960;-78
2024/01/03 12:23:56;;;;;;;;;;;;;;;8.62;100.00;99056.94;5012407;28;19925;-78
2024/01/03 12:26:22;;;;;;;;;;;;;;;8.53;100.00;99040.78;5008290;28;20012;-77
2024/01/03 12:28:49;;;;;;;;;;;;;;;8.41;100.00;99050.00;5016582;28;19921;-78
2024/01/03 12:31:18;;;;;;;;;;;;;;;8.53;100.00;99048.00;5008813;28;20326;-77
2024/01/03 12:33:43;;;;;;;;;;;;;;;9.07;100.00;99034.63;4997321;28;19927;-76
2024/01/03 12:36:08;;;;;;;;;;;;;;;9.80;100.00;99029.94;5001223;28;20283;-76